Time;durP1;ratioP1;P1;durP2;ratioP2;P2;SDS_P1;SDS_P2;PMS_P1;PMS_P2;Temp;Humidity;BMP_temperature;BMP_pressure;BME280_temperature;BME280_humidity;BME280_pressure;Samples;Min_cycle;Max_cycle;Signal;HPM_P1;HPM_P2
2024/03/04 00:02:15;;;;;;;0.10;0.10;;;;;;;;;;5063167;28;20263;-70
2024/03/04 00:04:42;;;;;;;0.10;0.10;;;;;;;;;;5047551;28;20461;-70
2024/03/04 00:07:09;;;;;;;0.10;0.10;;;;;;;;;;5051469;28;20476;-70
2024/03/04 00:09:35;;;;;;;0.10;0.10;;;;;;;;;;5026655;28;20307;-70
2024/03/04 00:12:01;;;;;;;0.27;0.27;;;;;;;;;;5062077;28;20240;-70
2024/03/04 00:14:28;;;;;;;0.10;0.10;;;;;;;;;;5048102;28;20232;-70
2024/03/04 00:16:55;;;;;;;0.10;0.10;;;;;;;;;;5049688;28;20245;-70
2024/03/04 00:19:22;;;;;;;0.20;0.20;;;;;;;;;;5030003;28;20230;-70
2024/03/04 00:21:48;;;;;;;0.10;0.10;;;;;;;;;;5056461;28;20240;-70
2024/03/04 00:24:15;;;;;;;0.10;0.10;;;;;;;;;;5051718;28;20387;-70
2024/03/04 00:26:41;;;;;;;0.10;0.10;;;;;;;;;;5047850;28;20428;-70
2024/03/04 00:29:08;;;;;;;0.10;0.10;;;;;;;;;;5033196;28;20229;-70
2024/03/04 00:31:34;;;;;;;0.10;0.10;;;;;;;;;;5050637;28;20240;-70
2024/03/04 00:34:04;;;;;;;0.10;0.10;;;;;;;;;;5055115;28;20215;-70
2024/03/04 00:36:30;;;;;;;0.10;0.10;;;;;;;;;;5046074;28;20279;-70
2024/03/04 00:38:57;;;;;;;0.10;0.10;;;;;;;;;;5036140;28;20516;-70
2024/03/04 00:41:23;;;;;;;0.10;0.10;;;;;;;;;;5046026;28;20247;-70
2024/03/04 00:43:49;;;;;;;0.10;0.10;;;;;;;;;;5057834;28;20276;-70
2024/03/04 00:46:16;;;;;;;0.10;0.10;;;;;;;;;;5044087;28;20241;-70
2024/03/04 00:48:44;;;;;;;0.10;0.10;;;;;;;;;;5039994;28;20248;-70
2024/03/04 00:51:12;;;;;;;0.10;0.10;;;;;;;;;;5040639;28;20239;-70
2024/03/04 00:53:39;;;;;;;0.20;0.20;;;;;;;;;;5060905;28;20528;-69
2024/03/04 00:56:05;;;;;;;0.10;0.10;;;;;;;;;;5042672;28;20490;-70
2024/03/04 00:58:33;;;;;;;0.10;0.10;;;;;;;;;;5042532;28;20202;-70
2024/03/04 01:00:59;;;;;;;0.10;0.10;;;;;;;;;;5035797;28;20236;-70
2024/03/04 01:03:25;;;;;;;0.10;0.10;;;;;;;;;;5063722;28;20223;-70
2024/03/04 01:05:52;;;;;;;0.10;0.10;;;;;;;;;;5040699;28;20259;-70
2024/03/04 01:08:19;;;;;;;0.10;0.10;;;;;;;;;;5045622;28;20257;-70
2024/03/04 01:10:50;;;;;;;0.23;0.23;;;;;;;;;;5029481;28;20263;-70
2024/03/04 01:13:19;;;;;;;0.20;0.20;;;;;;;;;;5065860;28;20205;-70
2024/03/04 01:15:47;;;;;;;0.10;0.10;;;;;;;;;;5039529;28;20243;-70
2024/03/04 01:18:14;;;;;;;0.10;0.10;;;;;;;;;;5046535;28;20208;-70
2024/03/04 01:20:40;;;;;;;0.13;0.13;;;;;;;;;;5027795;28;20245;-70
2024/03/04 01:23:08;;;;;;;0.20;0.20;;;;;;;;;;5068327;28;20219;-70
2024/03/04 01:25:36;;;;;;;0.10;0.10;;;;;;;;;;5038001;28;20244;-70
2024/03/04 01:28:02;;;;;;;0.20;0.20;;;;;;;;;;5049702;28;20220;-70
2024/03/04 01:30:29;;;;;;;0.10;0.10;;;;;;;;;;5023552;28;20291;-70
2024/03/04 01:32:56;;;;;;;0.10;0.10;;;;;;;;;;5071082;28;20239;-70
2024/03/04 01:35:23;;;;;;;0.10;0.10;;;;;;;;;;5035964;28;20385;-70
2024/03/04 01:37:49;;;;;;;0.10;0.10;;;;;;;;;;5053263;28;20190;-70
2024/03/04 01:40:16;;;;;;;3.50;3.30;;;;;;;;;;5018152;28;20472;-69
2024/03/04 01:42:44;;;;;;;0.20;0.20;;;;;;;;;;5074349;28;20252;-70
2024/03/04 01:45:15;;;;;;;0.10;0.10;;;;;;;;;;5034612;28;20304;-70
2024/03/04 01:47:42;;;;;;;0.30;0.30;;;;;;;;;;5054827;28;20305;-70
2024/03/04 01:50:09;;;;;;;0.10;0.10;;;;;;;;;;5019644;28;20205;-70
2024/03/04 01:52:36;;;;;;;0.10;0.10;;;;;;;;;;5075733;28;20225;-70
2024/03/04 01:55:05;;;;;;;0.10;0.10;;;;;;;;;;5044710;28;20361;-70
2024/03/04 01:57:31;;;;;;;0.10;0.10;;;;;;;;;;5046467;28;20561;-70
2024/03/04 02:00:00;;;;;;;0.10;0.10;;;;;;;;;;5024309;28;20205;-70
2024/03/04 02:02:26;;;;;;;0.10;0.10;;;;;;;;;;5065413;28;20245;-70
2024/03/04 02:04:53;;;;;;;0.10;0.10;;;;;;;;;;5044500;28;20211;-70
2024/03/04 02:07:19;;;;;;;0.10;0.10;;;;;;;;;;5047778;28;20282;-70
2024/03/04 02:09:46;;;;;;;0.10;0.10;;;;;;;;;;5024567;28;20256;-69
2024/03/04 02:12:13;;;;;;;0.10;0.10;;;;;;;;;;5063570;28;20319;-70
2024/03/04 02:14:41;;;;;;;0.20;0.20;;;;;;;;;;5044124;28;20246;-70
2024/03/04 02:17:08;;;;;;;0.10;0.10;;;;;;;;;;5048945;28;20270;-70
2024/03/04 02:19:35;;;;;;;0.10;0.10;;;;;;;;;;5024281;28;20205;-70
2024/03/04 02:22:04;;;;;;;0.10;0.10;;;;;;;;;;5059220;28;20241;-70
2024/03/04 02:24:31;;;;;;;0.10;0.10;;;;;;;;;;5045205;28;20208;-70
2024/03/04 02:26:59;;;;;;;0.10;0.10;;;;;;;;;;5047533;28;20247;-70
2024/03/04 02:29:25;;;;;;;0.10;0.10;;;;;;;;;;5026577;28;20233;-70
2024/03/04 02:31:51;;;;;;;0.20;0.20;;;;;;;;;;5055334;28;20481;-69
2024/03/04 02:34:18;;;;;;;0.20;0.20;;;;;;;;;;5048195;28;20205;-70
2024/03/04 02:36:44;;;;;;;0.17;0.17;;;;;;;;;;5045812;28;20416;-70
2024/03/04 02:39:11;;;;;;;0.10;0.10;;;;;;;;;;5030385;28;20202;-70
2024/03/04 02:41:40;;;;;;;0.17;0.17;;;;;;;;;;5049995;28;20281;-71
2024/03/04 02:44:06;;;;;;;0.17;0.17;;;;;;;;;;5051189;28;20258;-70
2024/03/04 02:46:33;;;;;;;0.10;0.10;;;;;;;;;;5044040;28;20289;-71
2024/03/04 02:48:59;;;;;;;0.10;0.10;;;;;;;;;;5033319;28;20229;-71
2024/03/04 02:51:26;;;;;;;0.10;0.10;;;;;;;;;;5044660;28;20251;-70
2024/03/04 02:53:52;;;;;;;0.20;0.20;;;;;;;;;;5055068;28;20264;-70
2024/03/04 02:56:19;;;;;;;0.10;0.10;;;;;;;;;;5042010;28;20235;-70
2024/03/04 02:58:47;;;;;;;0.10;0.10;;;;;;;;;;5036670;28;20238;-70
2024/03/04 03:01:13;;;;;;;0.20;0.20;;;;;;;;;;5039406;28;20258;-70
2024/03/04 03:03:39;;;;;;;0.10;0.10;;;;;;;;;;5058464;28;20369;-70
2024/03/04 03:06:06;;;;;;;0.20;0.20;;;;;;;;;;5040420;28;20322;-71
2024/03/04 03:08:33;;;;;;;0.10;0.10;;;;;;;;;;5039796;28;20391;-70
2024/03/04 03:10:59;;;;;;;0.20;0.20;;;;;;;;;;5033908;28;20253;-70
2024/03/04 03:13:25;;;;;;;0.20;0.20;;;;;;;;;;5061619;28;20204;-70
2024/03/04 03:15:53;;;;;;;0.20;0.20;;;;;;;;;;5038508;28;20240;-70
2024/03/04 03:18:20;;;;;;;0.20;0.20;;;;;;;;;;5043809;28;20205;-70
2024/03/04 03:20:45;;;;;;;0.10;0.10;;;;;;;;;;5028086;28;20298;-70
2024/03/04 03:23:11;;;;;;;0.10;0.10;;;;;;;;;;5065462;28;20201;-70
2024/03/04 03:25:38;;;;;;;0.20;0.20;;;;;;;;;;5036665;28;20553;-70
2024/03/04 03:28:05;;;;;;;0.10;0.10;;;;;;;;;;5046998;28;20280;-70
2024/03/04 03:30:31;;;;;;;0.20;0.20;;;;;;;;;;5022108;28;20253;-70
2024/03/04 03:32:59;;;;;;;0.10;0.10;;;;;;;;;;5068975;28;20195;-71
2024/03/04 03:35:25;;;;;;;0.20;0.20;;;;;;;;;;5037688;28;20204;-70
2024/03/04 03:37:51;;;;;;;0.10;0.10;;;;;;;;;;5054516;28;20233;-70
2024/03/04 03:40:18;;;;;;;0.80;0.80;;;;;;;;;;5020941;28;20281;-70
2024/03/04 03:42:44;;;;;;;0.10;0.10;;;;;;;;;;5076285;28;20193;-71
2024/03/04 03:45:10;;;;;;;0.10;0.10;;;;;;;;;;5037086;28;20212;-70
2024/03/04 03:47:37;;;;;;;0.10;0.10;;;;;;;;;;5058447;28;20207;-70
2024/03/04 03:50:05;;;;;;;0.10;0.10;;;;;;;;;;5026598;28;20301;-70
2024/03/04 03:52:34;;;;;;;0.10;0.10;;;;;;;;;;5068545;28;20555;-70
2024/03/04 03:55:00;;;;;;;0.10;0.10;;;;;;;;;;5046933;28;20204;-70
2024/03/04 03:57:26;;;;;;;0.10;0.10;;;;;;;;;;5049456;28;20241;-70
2024/03/04 03:59:53;;;;;;;0.20;0.20;;;;;;;;;;5027010;28;20242;-70
2024/03/04 04:02:19;;;;;;;0.20;0.20;;;;;;;;;;5066687;28;20399;-70
2024/03/04 04:04:46;;;;;;;0.13;0.13;;;;;;;;;;5046294;28;20439;-70
2024/03/04 04:07:13;;;;;;;0.10;0.10;;;;;;;;;;5051262;28;20435;-70
2024/03/04 04:09:40;;;;;;;0.30;0.30;;;;;;;;;;5026749;28;20265;-70
2024/03/04 04:12:07;;;;;;;0.20;0.20;;;;;;;;;;5064002;28;20325;-70
2024/03/04 04:14:34;;;;;;;0.10;0.10;;;;;;;;;;5046750;28;20204;-70
2024/03/04 04:17:01;;;;;;;0.10;0.10;;;;;;;;;;5050446;28;20306;-70
2024/03/04 04:19:27;;;;;;;0.20;0.20;;;;;;;;;;5028319;28;20250;-70
2024/03/04 04:21:53;;;;;;;0.10;0.10;;;;;;;;;;5058842;28;20496;-70
2024/03/04 04:24:21;;;;;;;0.10;0.10;;;;;;;;;;5050131;28;20228;-70
2024/03/04 04:26:47;;;;;;;0.10;0.10;;;;;;;;;;5048388;28;20247;-71
2024/03/04 04:29:14;;;;;;;0.10;0.10;;;;;;;;;;5031551;28;20236;-70
2024/03/04 04:31:41;;;;;;;0.10;0.10;;;;;;;;;;5052975;28;20239;-70
2024/03/04 04:34:07;;;;;;;0.47;0.47;;;;;;;;;;5053459;28;20428;-70
2024/03/04 04:36:33;;;;;;;0.20;0.20;;;;;;;;;;5046516;28;20246;-70
2024/03/04 04:39:00;;;;;;;0.10;0.10;;;;;;;;;;5035398;28;20243;-70
2024/03/04 04:41:28;;;;;;;0.10;0.10;;;;;;;;;;5047426;28;20264;-70
2024/03/04 04:43:54;;;;;;;0.10;0.10;;;;;;;;;;5056737;28;20242;-70
2024/03/04 04:46:21;;;;;;;0.10;0.10;;;;;;;;;;5044440;28;20243;-70
2024/03/04 04:48:48;;;;;;;0.10;0.10;;;;;;;;;;5038292;28;20256;-71
2024/03/04 04:51:14;;;;;;;0.20;0.20;;;;;;;;;;5042354;28;20254;-70
2024/03/04 04:53:41;;;;;;;0.20;0.20;;;;;;;;;;5059974;28;20428;-70
2024/03/04 04:56:07;;;;;;;0.10;0.10;;;;;;;;;;5042695;28;20255;-70
2024/03/04 04:58:35;;;;;;;0.13;0.13;;;;;;;;;;5041545;28;20276;-70
2024/03/04 05:01:01;;;;;;;0.20;0.20;;;;;;;;;;5036815;28;20281;-70
2024/03/04 05:03:28;;;;;;;0.20;0.20;;;;;;;;;;5062953;28;20238;-70
2024/03/04 05:05:54;;;;;;;0.23;0.23;;;;;;;;;;5040607;28;20551;-71
2024/03/04 05:08:20;;;;;;;0.20;0.20;;;;;;;;;;5044839;28;20286;-70
2024/03/04 05:10:50;;;;;;;0.10;0.10;;;;;;;;;;5030925;28;20306;-71
2024/03/04 05:13:17;;;;;;;0.20;0.20;;;;;;;;;;5065727;28;20206;-70
2024/03/04 05:15:45;;;;;;;0.10;0.10;;;;;;;;;;5039359;28;20249;-70
2024/03/04 05:18:11;;;;;;;0.10;0.10;;;;;;;;;;5047627;28;20212;-70
2024/03/04 05:20:37;;;;;;;0.20;0.20;;;;;;;;;;5026621;28;20262;-71
2024/03/04 05:23:04;;;;;;;0.13;0.13;;;;;;;;;;5069200;28;20229;-70
2024/03/04 05:25:30;;;;;;;0.20;0.20;;;;;;;;;;5037272;28;20253;-70
2024/03/04 05:27:57;;;;;;;0.20;0.20;;;;;;;;;;5050686;28;20204;-70
2024/03/04 05:30:23;;;;;;;0.10;0.10;;;;;;;;;;5020726;28;20228;-70
2024/03/04 05:32:52;;;;;;;0.10;0.10;;;;;;;;;;5072870;28;20201;-70
2024/03/04 05:35:18;;;;;;;0.23;0.23;;;;;;;;;;5035289;28;20276;-70
2024/03/04 05:37:44;;;;;;;0.20;0.20;;;;;;;;;;5054442;28;20443;-70
2024/03/04 05:40:14;;;;;;;0.13;0.13;;;;;;;;;;5016031;28;20433;-70
2024/03/04 05:42:41;;;;;;;0.20;0.20;;;;;;;;;;5075027;28;20319;-70
2024/03/04 05:45:08;;;;;;;0.20;0.20;;;;;;;;;;5044795;28;20198;-70
2024/03/04 05:47:35;;;;;;;0.20;0.20;;;;;;;;;;5032944;28;20207;-70
2024/03/04 05:50:03;;;;;;;0.10;0.10;;;;;;;;;;5044717;28;20302;-70
2024/03/04 05:52:29;;;;;;;0.57;0.57;;;;;;;;;;5046841;28;20312;-70
2024/03/04 05:54:56;;;;;;;0.97;0.77;;;;;;;;;;5024890;28;20202;-70
2024/03/04 05:57:22;;;;;;;2.43;2.10;;;;;;;;;;5064160;28;20521;-70
2024/03/04 05:59:49;;;;;;;0.73;0.73;;;;;;;;;;5044454;28;20255;-70
2024/03/04 06:02:15;;;;;;;0.20;0.20;;;;;;;;;;5049416;28;20435;-69
2024/03/04 06:04:41;;;;;;;0.20;0.20;;;;;;;;;;5024565;28;20351;-70
2024/03/04 06:07:09;;;;;;;0.20;0.20;;;;;;;;;;5062721;28;20241;-70
2024/03/04 06:09:35;;;;;;;0.20;0.20;;;;;;;;;;5043781;28;20265;-70
2024/03/04 06:12:02;;;;;;;0.20;0.20;;;;;;;;;;5048314;28;20259;-70
2024/03/04 06:14:28;;;;;;;0.20;0.20;;;;;;;;;;5025724;28;20206;-70
2024/03/04 06:16:55;;;;;;;0.20;0.20;;;;;;;;;;5056770;28;20617;-70
2024/03/04 06:19:22;;;;;;;0.20;0.20;;;;;;;;;;5047076;28;20244;-70
2024/03/04 06:21:48;;;;;;;0.20;0.20;;;;;;;;;;5046226;28;20263;-71
2024/03/04 06:24:16;;;;;;;0.20;0.20;;;;;;;;;;5029344;28;20211;-70
2024/03/04 06:26:43;;;;;;;0.20;0.20;;;;;;;;;;5051929;28;20260;-69
2024/03/04 06:29:09;;;;;;;0.20;0.20;;;;;;;;;;5050667;28;20206;-69
2024/03/04 06:31:36;;;;;;;0.20;0.20;;;;;;;;;;5044535;28;20241;-70
2024/03/04 06:34:03;;;;;;;0.20;0.20;;;;;;;;;;5032629;28;20207;-70
2024/03/04 06:36:29;;;;;;;0.20;0.20;;;;;;;;;;5046108;28;20239;-69
2024/03/04 06:38:55;;;;;;;0.20;0.20;;;;;;;;;;5054416;28;20233;-70
2024/03/04 06:41:23;;;;;;;0.20;0.20;;;;;;;;;;5042482;28;20325;-70
2024/03/04 06:43:49;;;;;;;0.10;0.10;;;;;;;;;;5036180;28;20218;-70
2024/03/04 06:46:16;;;;;;;0.20;0.20;;;;;;;;;;5040977;28;20241;-70
2024/03/04 06:48:42;;;;;;;0.20;0.20;;;;;;;;;;5057486;28;20202;-70
2024/03/04 06:51:09;;;;;;;0.30;0.30;;;;;;;;;;5040671;28;20248;-70
2024/03/04 06:53:35;;;;;;;0.20;0.20;;;;;;;;;;5039499;28;20212;-70
2024/03/04 06:56:01;;;;;;;0.30;0.30;;;;;;;;;;5034673;28;20264;-70
2024/03/04 06:58:29;;;;;;;0.20;0.20;;;;;;;;;;5061317;28;20249;-70
2024/03/04 07:00:55;;;;;;;0.77;0.77;;;;;;;;;;5038233;28;20338;-69
2024/03/04 07:03:22;;;;;;;0.20;0.20;;;;;;;;;;5044375;28;20211;-69
2024/03/04 07:05:48;;;;;;;0.20;0.20;;;;;;;;;;5029299;28;20247;-71
2024/03/04 07:08:15;;;;;;;0.20;0.20;;;;;;;;;;5064590;28;20280;-70
2024/03/04 07:10:49;;;;;;;0.20;0.20;;;;;;;;;;5040452;28;20266;-72
2024/03/04 07:13:16;;;;;;;0.20;0.20;;;;;;;;;;5048739;28;20272;-71
2024/03/04 07:15:44;;;;;;;0.20;0.20;;;;;;;;;;5031190;28;20263;-71
2024/03/04 07:18:10;;;;;;;0.20;0.20;;;;;;;;;;5069791;28;20212;-71
2024/03/04 07:20:37;;;;;;;0.20;0.20;;;;;;;;;;5040398;28;20239;-71
2024/03/04 07:23:04;;;;;;;0.20;0.20;;;;;;;;;;5051517;28;20205;-71
2024/03/04 07:25:30;;;;;;;1.07;1.07;;;;;;;;;;5025696;28;20244;-70
2024/03/04 07:27:57;;;;;;;0.20;0.20;;;;;;;;;;5073321;28;20199;-71
2024/03/04 07:30:23;;;;;;;0.20;0.20;;;;;;;;;;5038833;28;20559;-71
2024/03/04 07:32:51;;;;;;;0.30;0.30;;;;;;;;;;5055589;28;20451;-71
2024/03/04 07:35:17;;;;;;;0.20;0.20;;;;;;;;;;5020956;28;20209;-71
2024/03/04 07:37:44;;;;;;;0.20;0.20;;;;;;;;;;5076713;28;20185;-71
2024/03/04 07:40:11;;;;;;;0.20;0.20;;;;;;;;;;5037234;28;20230;-74
2024/03/04 07:42:38;;;;;;;0.20;0.20;;;;;;;;;;5057984;28;20277;-71
2024/03/04 07:45:06;;;;;;;0.20;0.20;;;;;;;;;;5027396;28;20213;-71
2024/03/04 07:47:32;;;;;;;0.20;0.20;;;;;;;;;;5068739;28;20544;-71
2024/03/04 07:50:00;;;;;;;1.37;1.37;;;;;;;;;;5047205;28;20209;-70
2024/03/04 07:52:26;;;;;;;0.20;0.20;;;;;;;;;;5049629;28;20247;-71
2024/03/04 07:54:53;;;;;;;0.10;0.10;;;;;;;;;;5027255;28;20212;-71
2024/03/04 07:57:19;;;;;;;0.17;0.17;;;;;;;;;;5066585;28;20585;-71
2024/03/04 07:59:46;;;;;;;0.20;0.20;;;;;;;;;;5046908;28;20260;-72
2024/03/04 08:02:12;;;;;;;0.20;0.20;;;;;;;;;;5051454;28;20267;-71
2024/03/04 08:04:38;;;;;;;0.87;0.87;;;;;;;;;;5027027;28;20275;-72
2024/03/04 08:07:06;;;;;;;1.23;1.23;;;;;;;;;;5063366;28;20570;-71
2024/03/04 08:09:33;;;;;;;0.30;0.30;;;;;;;;;;5047416;28;20294;-72
2024/03/04 08:11:59;;;;;;;0.10;0.10;;;;;;;;;;5050033;28;20283;-72
2024/03/04 08:14:26;;;;;;;0.20;0.20;;;;;;;;;;5028812;28;20302;-72
2024/03/04 08:16:52;;;;;;;0.10;0.10;;;;;;;;;;5057833;28;20243;-72
2024/03/04 08:19:18;;;;;;;0.20;0.20;;;;;;;;;;5050742;28;20205;-72
2024/03/04 08:21:45;;;;;;;0.20;0.20;;;;;;;;;;5047594;28;20580;-72
2024/03/04 08:24:13;;;;;;;0.20;0.20;;;;;;;;;;5032888;28;20205;-72
2024/03/04 08:26:39;;;;;;;0.20;0.20;;;;;;;;;;5052957;28;20267;-72
2024/03/04 08:29:06;;;;;;;0.30;0.30;;;;;;;;;;5053715;28;20206;-72
2024/03/04 08:31:36;;;;;;;0.10;0.10;;;;;;;;;;5046404;28;20576;-72
2024/03/04 08:34:04;;;;;;;0.20;0.20;;;;;;;;;;5034743;28;20250;-72
2024/03/04 08:36:30;;;;;;;0.20;0.20;;;;;;;;;;5049022;28;20272;-72
2024/03/04 08:38:56;;;;;;;0.20;0.20;;;;;;;;;;5055703;28;20241;-72
2024/03/04 08:41:25;;;;;;;0.10;0.10;;;;;;;;;;5044922;28;20242;-72
2024/03/04 08:43:51;;;;;;;0.20;0.20;;;;;;;;;;5037590;28;20217;-72
2024/03/04 08:46:18;;;;;;;0.20;0.20;;;;;;;;;;5043878;28;20249;-72
2024/03/04 08:48:44;;;;;;;0.10;0.10;;;;;;;;;;5058804;28;20278;-73
2024/03/04 08:51:11;;;;;;;0.90;0.90;;;;;;;;;;5043456;28;20242;-73
2024/03/04 08:53:37;;;;;;;0.10;0.10;;;;;;;;;;5040961;28;20271;-73
2024/03/04 08:56:04;;;;;;;0.10;0.10;;;;;;;;;;5038197;28;20242;-73
2024/03/04 08:58:32;;;;;;;0.10;0.10;;;;;;;;;;5062171;28;20274;-73
2024/03/04 09:01:00;;;;;;;0.10;0.10;;;;;;;;;;5041508;28;20240;-73
2024/03/04 09:03:26;;;;;;;0.10;0.10;;;;;;;;;;5043463;28;20209;-73
2024/03/04 09:05:53;;;;;;;0.10;0.10;;;;;;;;;;5033488;28;20259;-73
2024/03/04 09:08:19;;;;;;;0.10;0.10;;;;;;;;;;5065245;28;20219;-73
2024/03/04 09:10:52;;;;;;;0.10;0.10;;;;;;;;;;5039789;28;20240;-73
2024/03/04 09:13:19;;;;;;;0.10;0.10;;;;;;;;;;5045225;28;20205;-73
2024/03/04 09:15:47;;;;;;;0.10;0.10;;;;;;;;;;5030217;28;20249;-73
2024/03/04 09:18:13;;;;;;;0.10;0.10;;;;;;;;;;5066689;28;20279;-73
2024/03/04 09:20:40;;;;;;;0.10;0.10;;;;;;;;;;5038766;28;20559;-73
2024/03/04 09:23:07;;;;;;;0.10;0.10;;;;;;;;;;5048221;28;20237;-72
2024/03/04 09:25:33;;;;;;;0.10;0.10;;;;;;;;;;5025078;28;20239;-73
2024/03/04 09:28:00;;;;;;;0.10;0.10;;;;;;;;;;5070344;28;20260;-72
2024/03/04 09:30:27;;;;;;;0.20;0.20;;;;;;;;;;5036903;28;20200;-73
2024/03/04 09:32:54;;;;;;;0.10;0.10;;;;;;;;;;5050724;28;20504;-73
2024/03/04 09:35:21;;;;;;;0.10;0.10;;;;;;;;;;5019905;28;20395;-73
2024/03/04 09:37:48;;;;;;;0.10;0.10;;;;;;;;;;5073439;28;20231;-73
2024/03/04 09:40:14;;;;;;;0.20;0.20;;;;;;;;;;5035407;28;20244;-73
2024/03/04 09:42:45;;;;;;;0.10;0.10;;;;;;;;;;5055150;28;20212;-74
2024/03/04 09:45:12;;;;;;;0.10;0.10;;;;;;;;;;5016376;28;20399;-73
2024/03/04 09:47:40;;;;;;;0.10;0.10;;;;;;;;;;5075439;28;20235;-73
2024/03/04 09:50:08;;;;;;;0.10;0.10;;;;;;;;;;5044769;28;20216;-73
2024/03/04 09:52:36;;;;;;;0.10;0.10;;;;;;;;;;5032808;28;20208;-73
2024/03/04 09:55:04;;;;;;;0.10;0.10;;;;;;;;;;5044849;28;20243;-74
2024/03/04 09:57:30;;;;;;;0.20;0.20;;;;;;;;;;5046792;28;20242;-74
2024/03/04 09:59:58;;;;;;;0.10;0.10;;;;;;;;;;5024779;28;20232;-74
2024/03/04 10:02:25;;;;;;;0.10;0.10;;;;;;;;;;5064991;28;20481;-74
2024/03/04 10:04:52;;;;;;;0.10;0.10;;;;;;;;;;5044573;28;20204;-73
2024/03/04 10:07:20;;;;;;;0.10;0.10;;;;;;;;;;5048151;28;20509;-73
2024/03/04 10:09:47;;;;;;;0.10;0.10;;;;;;;;;;5024697;28;20274;-74
2024/03/04 10:12:13;;;;;;;0.10;0.10;;;;;;;;;;5063344;28;20239;-73
2024/03/04 10:14:58;;;;;;;0.10;0.10;;;;;;;;;;5044342;28;20214;-73
2024/03/04 10:17:25;;;;;;;0.10;0.10;;;;;;;;;;5046941;28;20242;-74
2024/03/04 10:19:57;;;;;;;0.10;0.10;;;;;;;;;;5024490;28;20205;-74
2024/03/04 10:22:25;;;;;;;0.10;0.10;;;;;;;;;;5064744;28;20242;-73
2024/03/04 10:24:58;;;;;;;0.10;0.10;;;;;;;;;;5044212;28;20280;-74
2024/03/04 10:27:24;;;;;;;0.10;0.10;;;;;;;;;;5047201;28;20251;-73
2024/03/04 10:29:51;;;;;;;0.20;0.20;;;;;;;;;;5024395;28;20212;-74
2024/03/04 10:32:19;;;;;;;0.10;0.10;;;;;;;;;;5063712;28;20585;-73
2024/03/04 10:34:45;;;;;;;0.90;0.87;;;;;;;;;;5044032;28;20217;-73
2024/03/04 10:37:12;;;;;;;0.10;0.10;;;;;;;;;;5048697;28;20267;-74
2024/03/04 10:39:40;;;;;;;0.10;0.10;;;;;;;;;;5024225;28;20205;-73
2024/03/04 10:42:07;;;;;;;0.10;0.10;;;;;;;;;;5045049;28;20374;-72
2024/03/04 10:44:33;;;;;;;0.10;0.10;;;;;;;;;;5024308;28;20213;-73
2024/03/04 10:47:01;;;;;;;0.10;0.10;;;;;;;;;;5058434;28;20239;-72
2024/03/04 10:49:28;;;;;;;0.20;0.20;;;;;;;;;;5045871;28;20197;-72
2024/03/04 10:51:54;;;;;;;0.10;0.10;;;;;;;;;;5047181;28;20510;-72
2024/03/04 10:54:22;;;;;;;0.10;0.10;;;;;;;;;;5027614;28;20395;-73
2024/03/04 10:56:56;;;;;;;0.10;0.10;;;;;;;;;;5054109;28;20239;-73
2024/03/04 10:59:24;;;;;;;0.10;0.10;;;;;;;;;;5047021;28;20232;-73
2024/03/04 11:01:51;;;;;;;0.10;0.10;;;;;;;;;;5046257;28;20285;-73
2024/03/04 11:04:18;;;;;;;0.10;0.10;;;;;;;;;;5028362;28;20300;-75
2024/03/04 11:06:44;;;;;;;0.10;0.10;;;;;;;;;;5052298;28;20261;-73
2024/03/04 11:09:11;;;;;;;0.10;0.10;;;;;;;;;;5049544;28;20276;-73
2024/03/04 11:11:43;;;;;;;1.90;1.90;;;;;;;;;;5044634;28;20488;-74
2024/03/04 11:14:14;;;;;;;0.10;0.10;;;;;;;;;;5030463;28;20458;-74
2024/03/04 11:16:44;;;;;;;0.10;0.10;;;;;;;;;;5050490;28;20255;-73
2024/03/04 11:19:12;;;;;;;0.10;0.10;;;;;;;;;;5049894;28;20206;-73
2024/03/04 11:21:40;;;;;;;0.10;0.10;;;;;;;;;;5044561;28;20244;-73
2024/03/04 11:24:08;;;;;;;0.10;0.10;;;;;;;;;;5030946;28;20200;-73
2024/03/04 11:26:35;;;;;;;0.10;0.10;;;;;;;;;;5048787;28;20285;-73
2024/03/04 11:29:02;;;;;;;0.10;0.10;;;;;;;;;;5054549;28;20391;-72
2024/03/04 11:31:31;;;;;;;0.10;0.10;;;;;;;;;;5043310;28;20306;-73
2024/03/04 11:34:01;;;;;;;0.10;0.10;;;;;;;;;;5033370;28;20201;-73
2024/03/04 11:36:28;;;;;;;0.10;0.10;;;;;;;;;;5045019;28;20242;-73
2024/03/04 11:38:55;;;;;;;0.10;0.10;;;;;;;;;;5054320;28;20425;-74
2024/03/04 11:41:36;;;;;;;0.20;0.20;;;;;;;;;;5044691;28;20241;-73
2024/03/04 11:44:03;;;;;;;0.10;0.10;;;;;;;;;;5028818;28;20207;-72
2024/03/04 11:46:33;;;;;;;0.10;0.10;;;;;;;;;;5046015;28;20290;-72
2024/03/04 11:49:20;;;;;;;0.10;0.10;;;;;;;;;;5053063;28;20392;-71
2024/03/04 11:51:47;;;;;;;0.10;0.10;;;;;;;;;;5045432;28;20283;-72
2024/03/04 11:54:13;;;;;;;0.10;0.10;;;;;;;;;;5029006;28;20208;-72
2024/03/04 11:56:41;;;;;;;0.10;0.10;;;;;;;;;;5052881;28;20242;-72
2024/03/04 11:59:07;;;;;;;0.10;0.10;;;;;;;;;;5054155;28;20215;-72
2024/03/04 12:01:39;;;;;;;0.10;0.10;;;;;;;;;;5046903;28;20309;-72
2024/03/04 12:04:06;;;;;;;0.10;0.10;;;;;;;;;;5035713;28;20212;-72
2024/03/04 12:06:33;;;;;;;0.10;0.10;;;;;;;;;;5051165;28;20263;-72
2024/03/04 12:09:00;;;;;;;0.10;0.10;;;;;;;;;;5055500;28;20276;-72
2024/03/04 12:11:27;;;;;;;0.10;0.10;;;;;;;;;;5046326;28;20250;-71
2024/03/04 12:13:53;;;;;;;0.10;0.10;;;;;;;;;;5037823;28;20524;-72
2024/03/04 12:16:20;;;;;;;0.10;0.10;;;;;;;;;;5045227;28;20249;-73
2024/03/04 12:18:50;;;;;;;0.10;0.10;;;;;;;;;;5059420;28;20258;-72
2024/03/04 12:21:16;;;;;;;0.20;0.20;;;;;;;;;;5044565;28;20248;-73
2024/03/04 12:23:43;;;;;;;0.10;0.10;;;;;;;;;;5040068;28;20235;-72
2024/03/04 12:26:10;;;;;;;0.10;0.10;;;;;;;;;;5039480;28;20270;-73
2024/03/04 12:28:38;;;;;;;0.10;0.10;;;;;;;;;;5061679;28;20236;-72
2024/03/04 12:31:09;;;;;;;0.10;0.10;;;;;;;;;;5042981;28;20722;-75
2024/03/04 12:33:35;;;;;;;0.10;0.10;;;;;;;;;;5042279;28;20230;-74
2024/03/04 12:36:03;;;;;;;0.10;0.10;;;;;;;;;;5037587;28;20576;-75
2024/03/04 12:38:32;;;;;;;0.10;0.10;;;;;;;;;;5063719;28;20283;-75
2024/03/04 12:40:59;;;;;;;0.10;0.10;;;;;;;;;;5042034;28;20250;-74
2024/03/04 12:43:26;;;;;;;0.10;0.10;;;;;;;;;;5044504;28;20282;-75
2024/03/04 12:45:52;;;;;;;0.10;0.10;;;;;;;;;;5033672;28;20287;-75
2024/03/04 12:48:20;;;;;;;0.10;0.10;;;;;;;;;;5066169;28;20255;-75
2024/03/04 12:50:47;;;;;;;0.10;0.10;;;;;;;;;;5040260;28;20314;-74
2024/03/04 12:53:15;;;;;;;0.10;0.10;;;;;;;;;;5047671;28;20378;-75
2024/03/04 12:55:41;;;;;;;1.07;1.07;;;;;;;;;;5029194;28;20310;-76
2024/03/04 12:58:08;;;;;;;0.10;0.10;;;;;;;;;;5068414;28;20216;-75
2024/03/04 13:00:36;;;;;;;0.10;0.10;;;;;;;;;;5038538;28;20286;-75
2024/03/04 13:03:02;;;;;;;0.10;0.10;;;;;;;;;;5050395;28;20396;-75
2024/03/04 13:05:29;;;;;;;0.10;0.10;;;;;;;;;;5024188;28;20585;-75
2024/03/04 13:07:55;;;;;;;0.37;0.37;;;;;;;;;;5071458;28;20237;-75
2024/03/04 13:10:25;;;;;;;0.10;0.10;;;;;;;;;;5036661;28;20233;-75
2024/03/04 13:12:52;;;;;;;0.10;0.10;;;;;;;;;;5053055;28;20260;-76
2024/03/04 13:15:18;;;;;;;1.80;1.80;;;;;;;;;;5019599;28;20210;-75
2024/03/04 13:17:44;;;;;;;0.10;0.10;;;;;;;;;;5075030;28;20384;-75
2024/03/04 13:20:12;;;;;;;0.10;0.10;;;;;;;;;;5035439;28;20208;-75
2024/03/04 13:22:39;;;;;;;0.10;0.10;;;;;;;;;;5055817;28;20301;-75
2024/03/04 13:25:07;;;;;;;0.10;0.10;;;;;;;;;;5025600;28;20247;-75
2024/03/04 13:27:35;;;;;;;0.10;0.10;;;;;;;;;;5067146;28;20264;-75
2024/03/04 13:30:02;;;;;;;0.10;0.10;;;;;;;;;;5044661;28;20219;-75
2024/03/04 13:32:28;;;;;;;0.10;0.10;;;;;;;;;;5047587;28;20245;-75
2024/03/04 13:34:55;;;;;;;0.10;0.10;;;;;;;;;;5025400;28;20206;-75
2024/03/04 13:37:21;;;;;;;0.10;0.10;;;;;;;;;;5065485;28;20274;-75
2024/03/04 13:39:48;;;;;;;0.10;0.10;;;;;;;;;;5076592;28;20405;-75
2024/03/04 13:42:15;;;;;;;0.10;0.10;;;;;;;;;;5049368;28;20313;-75
2024/03/04 13:44:43;;;;;;;0.10;0.10;;;;;;;;;;5025066;28;20238;-75
2024/03/04 13:47:09;;;;;;;0.30;0.30;;;;;;;;;;5063554;28;20254;-75
2024/03/04 13:49:36;;;;;;;0.10;0.10;;;;;;;;;;5044798;28;20405;-76
2024/03/04 13:52:02;;;;;;;0.10;0.10;;;;;;;;;;5048728;28;20237;-76
2024/03/04 13:54:30;;;;;;;0.10;0.10;;;;;;;;;;5026577;28;20312;-76
2024/03/04 13:56:56;;;;;;;0.10;0.10;;;;;;;;;;5058103;28;20267;-76
2024/03/04 13:59:23;;;;;;;0.10;0.10;;;;;;;;;;5047699;28;20212;-75
2024/03/04 14:01:50;;;;;;;0.20;0.20;;;;;;;;;;5046898;28;20246;-75
2024/03/04 14:04:17;;;;;;;0.10;0.10;;;;;;;;;;5029444;28;20216;-75
2024/03/04 14:06:44;;;;;;;0.10;0.10;;;;;;;;;;5052112;28;20247;-75
2024/03/04 14:09:10;;;;;;;0.10;0.10;;;;;;;;;;5050852;28;20445;-76
2024/03/04 14:11:37;;;;;;;0.10;0.10;;;;;;;;;;5045331;28;20504;-75
2024/03/04 14:14:03;;;;;;;0.10;0.10;;;;;;;;;;5032562;28;20215;-75
2024/03/04 14:16:30;;;;;;;0.10;0.10;;;;;;;;;;5046815;28;20248;-75
2024/03/04 14:18:59;;;;;;;0.10;0.10;;;;;;;;;;5053761;28;20209;-75
2024/03/04 14:21:25;;;;;;;0.10;0.10;;;;;;;;;;5043526;28;20301;-75
2024/03/04 14:23:51;;;;;;;0.10;0.10;;;;;;;;;;5035673;28;20437;-74
2024/03/04 14:26:18;;;;;;;0.10;0.10;;;;;;;;;;5042081;28;20239;-74
2024/03/04 14:28:44;;;;;;;0.10;0.10;;;;;;;;;;5057079;28;20204;-74
2024/03/04 14:31:12;;;;;;;0.10;0.10;;;;;;;;;;5041440;28;20580;-75
2024/03/04 14:33:39;;;;;;;0.10;0.10;;;;;;;;;;5038978;28;20279;-74
2024/03/04 14:36:07;;;;;;;0.30;0.30;;;;;;;;;;5036520;28;20264;-74
2024/03/04 14:38:34;;;;;;;0.10;0.10;;;;;;;;;;5060531;28;20396;-74
2024/03/04 14:41:01;;;;;;;0.10;0.10;;;;;;;;;;5040294;28;20243;-74
2024/03/04 14:43:27;;;;;;;0.10;0.10;;;;;;;;;;5041550;28;20232;-74